PWSweather.com
Personal Weather Stations
Station Observations
KCAOCEAN4
Jeffries Ranch, Oceanside, CA 92057

Jeffries RanchOceanside, CA 92057

Lat: 33.2463208, Lon: -117.25335080000002

Elevation: 207

Station Type: Davis Vantage Vue

jeffriesranchweather.com

High Low Average
Temperature 63.3°F17.4°C 46.4°F8.0°C 54.8°F12.7°C
Dew Point 54.7°F12.6°C 45.0°F7.2°C 49.3°F9.6°C
Winds 8.1 mph 13.0 kmh Calm Calm 2.0 mph SSE3.2 kmh SSE
Wind Gusts 14.1 mph22.7 kmh -- 5.0 mph8.0 kmh
Humidity 96% 62% 83%
Pressure 29.98 in1015.2 mb 29.88 in1011.9 mb -
Precipitation 0.03 in0.8 mm - -
Hour Temp Dew Point Humidity Winds Wind Gusts Pressure Precip Precip Rate Daily Precip Total
12:09 AM 50.2°F10.1°C 48.0°F8.9°C 92% Calm Calm 2.9 mph4.7 kmh 29.96 in1014.6 mb 0.00 in0.0 mm 0.00 in0.0 mm 0.00 in0.0 mm
12:19 AM 50.2°F10.1°C 48.2°F9.0°C 93% 0.9 mph E1.4 kmh E 4.0 mph6.4 kmh 29.96 in1014.6 mb 0.00 in0.0 mm 0.00 in0.0 mm 0.00 in0.0 mm
12:30 AM 50.2°F10.1°C 48.2°F9.0°C 93% 0.9 mph NE1.4 kmh NE 4.0 mph6.4 kmh 29.96 in1014.6 mb 0.00 in0.0 mm 0.00 in0.0 mm 0.00 in0.0 mm
12:40 AM 50.2°F10.1°C 48.2°F9.0°C 93% 0.9 mph E1.4 kmh E 5.0 mph8.0 kmh 29.96 in1014.6 mb 0.00 in0.0 mm 0.00 in0.0 mm 0.00 in0.0 mm
12:50 AM 50.2°F10.1°C 48.2°F9.0°C 93% 0.9 mph ENE1.4 kmh ENE 2.9 mph4.7 kmh 29.96 in1014.6 mb 0.00 in0.0 mm 0.00 in0.0 mm 0.00 in0.0 mm
01:00 AM 49.6°F9.8°C 47.5°F8.6°C 92% Calm Calm 0.9 mph1.4 kmh 29.96 in1014.6 mb 0.00 in0.0 mm 0.00 in0.0 mm 0.00 in0.0 mm
01:10 AM 49.6°F9.8°C 47.5°F8.6°C 92% Calm Calm 0.9 mph1.4 kmh 29.96 in1014.6 mb 0.00 in0.0 mm 0.00 in0.0 mm 0.00 in0.0 mm
01:20 AM 49.5°F9.7°C 47.5°F8.6°C 93% Calm Calm 3.0 mph4.8 kmh 29.96 in1014.6 mb 0.00 in0.0 mm 0.00 in0.0 mm 0.00 in0.0 mm
01:30 AM 49.3°F9.6°C 47.3°F8.5°C 93% Calm Calm 2.0 mph3.2 kmh 29.95 in1014.2 mb 0.00 in0.0 mm 0.00 in0.0 mm 0.00 in0.0 mm
01:40 AM 49.3°F9.6°C 47.7°F8.7°C 94% Calm Calm 0.9 mph1.4 kmh 29.95 in1014.2 mb 0.00 in0.0 mm 0.00 in0.0 mm 0.00 in0.0 mm
01:50 AM 49.3°F9.6°C 47.3°F8.5°C 93% Calm Calm 2.0 mph3.2 kmh 29.95 in1014.2 mb 0.00 in0.0 mm 0.00 in0.0 mm 0.00 in0.0 mm
02:00 AM 48.9°F9.4°C 46.9°F8.3°C 93% 0.9 mph ENE1.4 kmh ENE 2.9 mph4.7 kmh 29.94 in1013.9 mb 0.00 in0.0 mm 0.00 in0.0 mm 0.00 in0.0 mm
02:10 AM 48.7°F9.3°C 47.1°F8.4°C 94% 0.9 mph E1.4 kmh E 2.0 mph3.2 kmh 29.94 in1013.9 mb 0.00 in0.0 mm 0.00 in0.0 mm 0.00 in0.0 mm
02:20 AM 48.6°F9.2°C 46.9°F8.3°C 94% 0.9 mph ENE1.4 kmh ENE 4.0 mph6.4 kmh 29.96 in1014.6 mb 0.00 in0.0 mm 0.00 in0.0 mm 0.00 in0.0 mm
02:30 AM 48.4°F9.1°C 46.8°F8.2°C 94% 0.9 mph ENE1.4 kmh ENE 2.9 mph4.7 kmh 29.95 in1014.2 mb 0.00 in0.0 mm 0.00 in0.0 mm 0.00 in0.0 mm
02:40 AM 48.4°F9.1°C 46.8°F8.2°C 94% 0.9 mph E1.4 kmh E 3.0 mph4.8 kmh 29.95 in1014.2 mb 0.00 in0.0 mm 0.00 in0.0 mm 0.00 in0.0 mm
02:50 AM 48.4°F9.1°C 46.8°F8.2°C 94% 0.9 mph NE1.4 kmh NE 2.9 mph4.7 kmh 29.94 in1013.9 mb 0.00 in0.0 mm 0.00 in0.0 mm 0.00 in0.0 mm
03:00 AM 48.0°F8.9°C 46.4°F8.0°C 94% Calm Calm -- 29.95 in1014.2 mb 0.00 in0.0 mm 0.00 in0.0 mm 0.00 in0.0 mm
03:10 AM 48.0°F8.9°C 46.4°F8.0°C 94% Calm Calm -- 29.94 in1013.9 mb 0.00 in0.0 mm 0.00 in0.0 mm 0.00 in0.0 mm
03:20 AM 47.8°F8.8°C 46.2°F7.9°C 94% Calm Calm -- 29.94 in1013.9 mb 0.00 in0.0 mm 0.00 in0.0 mm 0.00 in0.0 mm
03:30 AM 47.5°F8.6°C 45.9°F7.7°C 94% Calm Calm -- 29.94 in1013.9 mb 0.00 in0.0 mm 0.00 in0.0 mm 0.00 in0.0 mm
03:40 AM 48.0°F8.9°C 46.6°F8.1°C 95% 0.9 mph NE1.4 kmh NE 6.0 mph9.7 kmh 29.95 in1014.2 mb 0.00 in0.0 mm 0.00 in0.0 mm 0.00 in0.0 mm
03:50 AM 48.0°F8.9°C 46.4°F8.0°C 94% 2.0 mph ENE3.2 kmh ENE 5.0 mph8.0 kmh 29.95 in1014.2 mb 0.00 in0.0 mm 0.00 in0.0 mm 0.00 in0.0 mm
04:00 AM 48.0°F8.9°C 46.6°F8.1°C 95% 2.0 mph ENE3.2 kmh ENE 4.0 mph6.4 kmh 29.95 in1014.2 mb 0.00 in0.0 mm 0.00 in0.0 mm 0.00 in0.0 mm
04:10 AM 48.2°F9.0°C 46.8°F8.2°C 95% 2.9 mph ENE4.7 kmh ENE 5.0 mph8.0 kmh 29.95 in1014.2 mb 0.00 in0.0 mm 0.00 in0.0 mm 0.00 in0.0 mm
04:20 AM 48.0°F8.9°C 46.6°F8.1°C 95% 2.0 mph E3.2 kmh E 2.9 mph4.7 kmh 29.95 in1014.2 mb 0.00 in0.0 mm 0.00 in0.0 mm 0.00 in0.0 mm
04:30 AM 48.2°F9.0°C 46.8°F8.2°C 95% 0.9 mph NE1.4 kmh NE 2.9 mph4.7 kmh 29.95 in1014.2 mb 0.00 in0.0 mm 0.00 in0.0 mm 0.00 in0.0 mm
04:40 AM 48.0°F8.9°C 46.6°F8.1°C 95% Calm Calm 2.0 mph3.2 kmh 29.95 in1014.2 mb 0.00 in0.0 mm 0.00 in0.0 mm 0.00 in0.0 mm
04:50 AM 47.8°F8.8°C 46.4°F8.0°C 95% 0.9 mph E1.4 kmh E 2.0 mph3.2 kmh 29.95 in1014.2 mb 0.00 in0.0 mm 0.00 in0.0 mm 0.00 in0.0 mm
05:00 AM 47.7°F8.7°C 46.2°F7.9°C 95% Calm Calm 2.9 mph4.7 kmh 29.96 in1014.6 mb 0.00 in0.0 mm 0.00 in0.0 mm 0.00 in0.0 mm
05:10 AM 47.7°F8.7°C 46.2°F7.9°C 95% 0.9 mph ENE1.4 kmh ENE 4.9 mph7.9 kmh 29.95 in1014.2 mb 0.00 in0.0 mm 0.00 in0.0 mm 0.00 in0.0 mm
05:20 AM 47.7°F8.7°C 46.2°F7.9°C 95% 0.9 mph ENE1.4 kmh ENE 4.0 mph6.4 kmh 29.96 in1014.6 mb 0.00 in0.0 mm 0.00 in0.0 mm 0.00 in0.0 mm
05:30 AM 47.7°F8.7°C 46.2°F7.9°C 95% Calm Calm 2.0 mph3.2 kmh 29.96 in1014.6 mb 0.00 in0.0 mm 0.00 in0.0 mm 0.00 in0.0 mm
05:40 AM 47.1°F8.4°C 45.7°F7.6°C 95% Calm Calm 0.9 mph1.4 kmh 29.96 in1014.6 mb 0.00 in0.0 mm 0.00 in0.0 mm 0.00 in0.0 mm
05:50 AM 46.4°F8.0°C 45.0°F7.2°C 95% Calm Calm 0.9 mph1.4 kmh 29.96 in1014.6 mb 0.00 in0.0 mm 0.00 in0.0 mm 0.00 in0.0 mm
06:00 AM 46.6°F8.1°C 45.1°F7.3°C 95% Calm Calm 0.9 mph1.4 kmh 29.97 in1014.9 mb 0.00 in0.0 mm 0.00 in0.0 mm 0.00 in0.0 mm
06:10 AM 46.9°F8.3°C 45.9°F7.7°C 96% 0.9 mph E1.4 kmh E 3.0 mph4.8 kmh 29.97 in1014.9 mb 0.00 in0.0 mm 0.00 in0.0 mm 0.00 in0.0 mm
06:20 AM 46.9°F8.3°C 45.5°F7.5°C 95% 0.9 mph E1.4 kmh E 4.0 mph6.4 kmh 29.97 in1014.9 mb 0.00 in0.0 mm 0.00 in0.0 mm 0.00 in0.0 mm
06:30 AM 47.3°F8.5°C 46.2°F7.9°C 96% 0.9 mph ENE1.4 kmh ENE 4.0 mph6.4 kmh 29.97 in1014.9 mb 0.00 in0.0 mm 0.00 in0.0 mm 0.00 in0.0 mm
06:40 AM 47.7°F8.7°C 46.6°F8.1°C 96% 2.0 mph E3.2 kmh E 4.0 mph6.4 kmh 29.97 in1014.9 mb 0.00 in0.0 mm 0.00 in0.0 mm 0.00 in0.0 mm
06:50 AM 47.7°F8.7°C 46.2°F7.9°C 95% Calm Calm 2.0 mph3.2 kmh 29.98 in1015.2 mb 0.00 in0.0 mm 0.00 in0.0 mm 0.00 in0.0 mm
07:00 AM 47.5°F8.6°C 46.0°F7.8°C 95% 0.9 mph ENE1.4 kmh ENE 6.0 mph9.7 kmh 29.98 in1015.2 mb 0.00 in0.0 mm 0.00 in0.0 mm 0.00 in0.0 mm
07:10 AM 47.5°F8.6°C 46.4°F8.0°C 96% 2.0 mph ENE3.2 kmh ENE 4.9 mph7.9 kmh 29.98 in1015.2 mb 0.00 in0.0 mm 0.00 in0.0 mm 0.00 in0.0 mm
07:20 AM 47.7°F8.7°C 46.6°F8.1°C 96% 2.0 mph ESE3.2 kmh ESE 4.0 mph6.4 kmh 29.97 in1014.9 mb 0.00 in0.0 mm 0.00 in0.0 mm 0.00 in0.0 mm
07:30 AM 48.0°F8.9°C 46.9°F8.3°C 96% 0.9 mph E1.4 kmh E 2.9 mph4.7 kmh 29.98 in1015.2 mb 0.00 in0.0 mm 0.00 in0.0 mm 0.00 in0.0 mm
07:40 AM 48.7°F9.3°C 47.7°F8.7°C 96% 0.9 mph ENE1.4 kmh ENE 4.0 mph6.4 kmh 29.97 in1014.9 mb 0.00 in0.0 mm 0.00 in0.0 mm 0.00 in0.0 mm
07:50 AM 48.9°F9.4°C 47.5°F8.6°C 95% 2.0 mph NNE3.2 kmh NNE 5.0 mph8.0 kmh 29.98 in1015.2 mb 0.00 in0.0 mm 0.00 in0.0 mm 0.00 in0.0 mm
08:00 AM 49.5°F9.7°C 48.0°F8.9°C 95% 2.0 mph ENE3.2 kmh ENE 4.0 mph6.4 kmh 29.98 in1015.2 mb 0.00 in0.0 mm 0.00 in0.0 mm 0.00 in0.0 mm
08:10 AM 50.4°F10.2°C 48.9°F9.4°C 95% 0.9 mph E1.4 kmh E 4.0 mph6.4 kmh 29.98 in1015.2 mb 0.00 in0.0 mm 0.00 in0.0 mm 0.00 in0.0 mm
08:20 AM 50.7°F10.4°C 49.3°F9.6°C 95% 2.0 mph ENE3.2 kmh ENE 6.0 mph9.7 kmh 29.97 in1014.9 mb 0.00 in0.0 mm 0.00 in0.0 mm 0.00 in0.0 mm
08:30 AM 51.6°F10.9°C 50.2°F10.1°C 95% 0.9 mph NE1.4 kmh NE 4.0 mph6.4 kmh 29.98 in1015.2 mb 0.00 in0.0 mm 0.00 in0.0 mm 0.00 in0.0 mm
08:40 AM 52.9°F11.6°C 51.3°F10.7°C 94% 0.9 mph E1.4 kmh E 2.9 mph4.7 kmh 29.98 in1015.2 mb 0.00 in0.0 mm 0.00 in0.0 mm 0.00 in0.0 mm
08:50 AM 53.8°F12.1°C 51.4°F10.8°C 92% 2.0 mph ENE3.2 kmh ENE 4.9 mph7.9 kmh 29.97 in1014.9 mb 0.00 in0.0 mm 0.00 in0.0 mm 0.00 in0.0 mm
09:00 AM 54.9°F12.7°C 52.3°F11.3°C 91% 0.9 mph NE1.4 kmh NE 4.0 mph6.4 kmh 29.98 in1015.2 mb 0.01 in0.3 mm 0.01 in0.3 mm 0.01 in0.3 mm
09:10 AM 56.1°F13.4°C 53.2°F11.8°C 90% Calm Calm 2.0 mph3.2 kmh 29.98 in1015.2 mb 0.01 in0.3 mm 0.00 in0.0 mm 0.01 in0.3 mm
09:20 AM 57.4°F14.1°C 53.8°F12.1°C 88% Calm Calm 2.0 mph3.2 kmh 29.98 in1015.2 mb 0.01 in0.3 mm 0.00 in0.0 mm 0.01 in0.3 mm
09:30 AM 59.0°F15.0°C 54.5°F12.5°C 85% 0.9 mph E1.4 kmh E 2.0 mph3.2 kmh 29.97 in1014.9 mb 0.01 in0.3 mm 0.00 in0.0 mm 0.01 in0.3 mm
09:40 AM 60.6°F15.9°C 54.7°F12.6°C 81% 0.9 mph SSE1.4 kmh SSE 4.9 mph7.9 kmh 29.97 in1014.9 mb 0.01 in0.3 mm 0.00 in0.0 mm 0.01 in0.3 mm
09:50 AM 60.6°F15.9°C 53.4°F11.9°C 77% 2.9 mph SW4.7 kmh SW 4.9 mph7.9 kmh 29.97 in1014.9 mb 0.01 in0.3 mm 0.00 in0.0 mm 0.01 in0.3 mm
10:00 AM 60.6°F15.9°C 53.1°F11.7°C 76% 2.0 mph SSE3.2 kmh SSE 6.0 mph9.7 kmh 29.98 in1015.2 mb 0.00 in0.0 mm 0.00 in0.0 mm 0.01 in0.3 mm
10:10 AM 61.2°F16.2°C 52.9°F11.6°C 74% 4.0 mph SW6.4 kmh SW 10.1 mph16.3 kmh 29.97 in1014.9 mb 0.00 in0.0 mm 0.00 in0.0 mm 0.01 in0.3 mm
10:20 AM 61.2°F16.2°C 52.9°F11.6°C 74% 2.0 mph WSW3.2 kmh WSW 4.9 mph7.9 kmh 29.97 in1014.9 mb 0.00 in0.0 mm 0.00 in0.0 mm 0.01 in0.3 mm
10:30 AM 61.3°F16.3°C 52.7°F11.5°C 73% 2.0 mph WSW3.2 kmh WSW 6.9 mph11.1 kmh 29.97 in1014.9 mb 0.00 in0.0 mm 0.00 in0.0 mm 0.01 in0.3 mm
10:40 AM 62.2°F16.8°C 53.1°F11.7°C 72% 2.9 mph SW4.7 kmh SW 11.0 mph17.7 kmh 29.97 in1014.9 mb 0.00 in0.0 mm 0.00 in0.0 mm 0.01 in0.3 mm
10:50 AM 61.9°F16.6°C 52.7°F11.5°C 72% 2.9 mph SW4.7 kmh SW 6.0 mph9.7 kmh 29.96 in1014.6 mb 0.00 in0.0 mm 0.00 in0.0 mm 0.01 in0.3 mm
11:00 AM 62.1°F16.7°C 52.5°F11.4°C 71% 2.9 mph W4.7 kmh W 8.1 mph13.0 kmh 29.95 in1014.2 mb 0.00 in0.0 mm 0.00 in0.0 mm 0.01 in0.3 mm
11:10 AM 62.2°F16.8°C 52.7°F11.5°C 71% 4.0 mph SW6.4 kmh SW 10.1 mph16.3 kmh 29.95 in1014.2 mb 0.00 in0.0 mm 0.00 in0.0 mm 0.01 in0.3 mm
11:20 AM 62.4°F16.9°C 52.5°F11.4°C 70% 4.0 mph WSW6.4 kmh WSW 8.9 mph14.3 kmh 29.94 in1013.9 mb 0.00 in0.0 mm 0.00 in0.0 mm 0.01 in0.3 mm
11:30 AM 62.6°F17.0°C 52.0°F11.1°C 68% 4.0 mph S6.4 kmh S 10.1 mph16.3 kmh 29.94 in1013.9 mb 0.00 in0.0 mm 0.00 in0.0 mm 0.01 in0.3 mm
11:40 AM 62.8°F17.1°C 51.3°F10.7°C 66% 4.9 mph WSW7.9 kmh WSW 12.1 mph19.5 kmh 29.94 in1013.9 mb 0.00 in0.0 mm 0.00 in0.0 mm 0.01 in0.3 mm
11:50 AM 63.0°F17.2°C 50.2°F10.1°C 63% 4.0 mph SW6.4 kmh SW 11.0 mph17.7 kmh 29.94 in1013.9 mb 0.00 in0.0 mm 0.00 in0.0 mm 0.01 in0.3 mm
12:00 PM 63.3°F17.4°C 50.0°F10.0°C 62% 4.0 mph WNW6.4 kmh WNW 10.1 mph16.3 kmh 29.93 in1013.5 mb 0.00 in0.0 mm 0.00 in0.0 mm 0.01 in0.3 mm
12:10 PM 62.8°F17.1°C 50.0°F10.0°C 63% 6.0 mph S9.7 kmh S 11.0 mph17.7 kmh 29.93 in1013.5 mb 0.00 in0.0 mm 0.00 in0.0 mm 0.01 in0.3 mm
12:20 PM 63.0°F17.2°C 50.2°F10.1°C 63% 4.9 mph WSW7.9 kmh WSW 11.0 mph17.7 kmh 29.93 in1013.5 mb 0.00 in0.0 mm 0.00 in0.0 mm 0.01 in0.3 mm
12:30 PM 62.6°F17.0°C 50.2°F10.1°C 64% 6.0 mph SW9.7 kmh SW 12.1 mph19.5 kmh 29.92 in1013.2 mb 0.00 in0.0 mm 0.00 in0.0 mm 0.01 in0.3 mm
12:40 PM 62.2°F16.8°C 49.5°F9.7°C 63% 6.0 mph WNW9.7 kmh WNW 14.1 mph22.7 kmh 29.91 in1012.9 mb 0.00 in0.0 mm 0.00 in0.0 mm 0.01 in0.3 mm
12:50 PM 62.4°F16.9°C 50.5°F10.3°C 65% 6.0 mph W9.7 kmh W 12.1 mph19.5 kmh 29.91 in1012.9 mb 0.00 in0.0 mm 0.00 in0.0 mm 0.01 in0.3 mm
01:00 PM 62.4°F16.9°C 50.0°F10.0°C 64% 6.0 mph SW9.7 kmh SW 13.0 mph20.9 kmh 29.90 in1012.5 mb 0.00 in0.0 mm 0.00 in0.0 mm 0.01 in0.3 mm
01:10 PM 62.8°F17.1°C 50.4°F10.2°C 64% 4.9 mph WSW7.9 kmh WSW 12.1 mph19.5 kmh 29.90 in1012.5 mb 0.00 in0.0 mm 0.00 in0.0 mm 0.01 in0.3 mm
01:20 PM 62.6°F17.0°C 49.8°F9.9°C 63% 6.0 mph W9.7 kmh W 8.9 mph14.3 kmh 29.90 in1012.5 mb 0.00 in0.0 mm 0.00 in0.0 mm 0.01 in0.3 mm
01:30 PM 62.2°F16.8°C 50.0°F10.0°C 64% 6.9 mph SW11.1 kmh SW 12.1 mph19.5 kmh 29.89 in1012.2 mb 0.00 in0.0 mm 0.00 in0.0 mm 0.01 in0.3 mm
01:40 PM 62.4°F16.9°C 49.6°F9.8°C 63% 6.0 mph SW9.7 kmh SW 13.0 mph20.9 kmh 29.89 in1012.2 mb 0.00 in0.0 mm 0.00 in0.0 mm 0.01 in0.3 mm
01:50 PM 62.2°F16.8°C 49.1°F9.5°C 62% 6.9 mph W11.1 kmh W 13.0 mph20.9 kmh 29.89 in1012.2 mb 0.00 in0.0 mm 0.00 in0.0 mm 0.01 in0.3 mm
02:00 PM 62.4°F16.9°C 49.6°F9.8°C 63% 6.0 mph NW9.7 kmh NW 12.1 mph19.5 kmh 29.89 in1012.2 mb 0.00 in0.0 mm 0.00 in0.0 mm 0.01 in0.3 mm
02:10 PM 62.4°F16.9°C 49.6°F9.8°C 63% 8.1 mph W13.0 kmh W 13.0 mph20.9 kmh 29.89 in1012.2 mb 0.00 in0.0 mm 0.00 in0.0 mm 0.01 in0.3 mm
02:20 PM 62.2°F16.8°C 50.0°F10.0°C 64% 6.9 mph W11.1 kmh W 13.0 mph20.9 kmh 29.89 in1012.2 mb 0.00 in0.0 mm 0.00 in0.0 mm 0.01 in0.3 mm
02:30 PM 62.1°F16.7°C 49.8°F9.9°C 64% 8.1 mph W13.0 kmh W 13.0 mph20.9 kmh 29.89 in1012.2 mb 0.00 in0.0 mm 0.00 in0.0 mm 0.01 in0.3 mm
02:40 PM 62.1°F16.7°C 51.4°F10.8°C 68% 6.0 mph W9.7 kmh W 12.1 mph19.5 kmh 29.89 in1012.2 mb 0.00 in0.0 mm 0.00 in0.0 mm 0.01 in0.3 mm
02:50 PM 61.9°F16.6°C 51.3°F10.7°C 68% 6.9 mph NW11.1 kmh NW 12.1 mph19.5 kmh 29.89 in1012.2 mb 0.00 in0.0 mm 0.00 in0.0 mm 0.01 in0.3 mm
03:00 PM 61.5°F16.4°C 50.9°F10.5°C 68% 8.1 mph WNW13.0 kmh WNW 14.1 mph22.7 kmh 29.90 in1012.5 mb 0.00 in0.0 mm 0.00 in0.0 mm 0.01 in0.3 mm
03:10 PM 61.3°F16.3°C 51.4°F10.8°C 70% 6.9 mph WSW11.1 kmh WSW 12.1 mph19.5 kmh 29.89 in1012.2 mb 0.00 in0.0 mm 0.00 in0.0 mm 0.01 in0.3 mm
03:20 PM 61.3°F16.3°C 51.4°F10.8°C 70% 6.0 mph W9.7 kmh W 13.0 mph20.9 kmh 29.89 in1012.2 mb 0.00 in0.0 mm 0.00 in0.0 mm 0.01 in0.3 mm
03:30 PM 61.0°F16.1°C 51.4°F10.8°C 71% 6.0 mph WSW9.7 kmh WSW 13.0 mph20.9 kmh 29.89 in1012.2 mb 0.00 in0.0 mm 0.00 in0.0 mm 0.01 in0.3 mm
03:40 PM 61.2°F16.2°C 52.0°F11.1°C 72% 4.9 mph W7.9 kmh W 11.0 mph17.7 kmh 29.89 in1012.2 mb 0.00 in0.0 mm 0.00 in0.0 mm 0.01 in0.3 mm
03:50 PM 60.8°F16.0°C 51.3°F10.7°C 71% 6.0 mph W9.7 kmh W 11.0 mph17.7 kmh 29.89 in1012.2 mb 0.00 in0.0 mm 0.00 in0.0 mm 0.01 in0.3 mm
04:00 PM 60.6°F15.9°C 51.6°F10.9°C 72% 2.9 mph W4.7 kmh W 8.9 mph14.3 kmh 29.89 in1012.2 mb 0.00 in0.0 mm 0.00 in0.0 mm 0.01 in0.3 mm
04:10 PM 60.3°F15.7°C 51.3°F10.7°C 72% 4.0 mph WSW6.4 kmh WSW 10.1 mph16.3 kmh 29.88 in1011.9 mb 0.00 in0.0 mm 0.00 in0.0 mm 0.01 in0.3 mm
04:20 PM 59.7°F15.4°C 50.7°F10.4°C 72% 4.9 mph W7.9 kmh W 8.1 mph13.0 kmh 29.89 in1012.2 mb 0.00 in0.0 mm 0.00 in0.0 mm 0.01 in0.3 mm
04:30 PM 59.4°F15.2°C 50.4°F10.2°C 72% 2.0 mph WSW3.2 kmh WSW 6.0 mph9.7 kmh 29.88 in1011.9 mb 0.00 in0.0 mm 0.00 in0.0 mm 0.01 in0.3 mm
04:40 PM 58.6°F14.8°C 50.0°F10.0°C 73% 0.9 mph SSW1.4 kmh SSW 4.0 mph6.4 kmh 29.88 in1011.9 mb 0.00 in0.0 mm 0.00 in0.0 mm 0.01 in0.3 mm
04:50 PM 57.9°F14.4°C 50.0°F10.0°C 75% Calm Calm 4.0 mph6.4 kmh 29.88 in1011.9 mb 0.00 in0.0 mm 0.00 in0.0 mm 0.01 in0.3 mm
05:00 PM 57.2°F14.0°C 49.6°F9.8°C 76% Calm Calm 0.9 mph1.4 kmh 29.88 in1011.9 mb 0.00 in0.0 mm 0.00 in0.0 mm 0.01 in0.3 mm
05:10 PM 56.5°F13.6°C 49.3°F9.6°C 77% Calm Calm -- 29.88 in1011.9 mb 0.00 in0.0 mm 0.00 in0.0 mm 0.01 in0.3 mm
05:20 PM 56.1°F13.4°C 48.9°F9.4°C 77% 0.9 mph SSE1.4 kmh SSE 2.0 mph3.2 kmh 29.89 in1012.2 mb 0.00 in0.0 mm 0.00 in0.0 mm 0.01 in0.3 mm
05:30 PM 56.3°F13.5°C 48.9°F9.4°C 76% 0.9 mph SSW1.4 kmh SSW 2.0 mph3.2 kmh 29.89 in1012.2 mb 0.00 in0.0 mm 0.00 in0.0 mm 0.01 in0.3 mm
05:40 PM 56.1°F13.4°C 48.7°F9.3°C 76% Calm Calm 2.0 mph3.2 kmh 29.89 in1012.2 mb 0.00 in0.0 mm 0.00 in0.0 mm 0.01 in0.3 mm
05:50 PM 55.4°F13.0°C 48.7°F9.3°C 78% 0.9 mph SE1.4 kmh SE 2.0 mph3.2 kmh 29.89 in1012.2 mb 0.00 in0.0 mm 0.00 in0.0 mm 0.01 in0.3 mm
06:00 PM 55.0°F12.8°C 48.6°F9.2°C 79% 0.9 mph SE1.4 kmh SE 0.9 mph1.4 kmh 29.90 in1012.5 mb 0.00 in0.0 mm 0.00 in0.0 mm 0.01 in0.3 mm
06:10 PM 55.2°F12.9°C 48.6°F9.2°C 78% Calm Calm 2.9 mph4.7 kmh 29.89 in1012.2 mb 0.00 in0.0 mm 0.00 in0.0 mm 0.01 in0.3 mm
06:20 PM 54.7°F12.6°C 48.6°F9.2°C 80% Calm Calm 0.9 mph1.4 kmh 29.89 in1012.2 mb 0.00 in0.0 mm 0.00 in0.0 mm 0.01 in0.3 mm
06:30 PM 54.5°F12.5°C 48.4°F9.1°C 80% Calm Calm 0.9 mph1.4 kmh 29.90 in1012.5 mb 0.00 in0.0 mm 0.00 in0.0 mm 0.01 in0.3 mm
06:40 PM 54.1°F12.3°C 48.4°F9.1°C 81% Calm Calm -- 29.90 in1012.5 mb 0.00 in0.0 mm 0.00 in0.0 mm 0.01 in0.3 mm
06:50 PM 54.3°F12.4°C 48.2°F9.0°C 80% 0.9 mph SSE1.4 kmh SSE 4.0 mph6.4 kmh 29.90 in1012.5 mb 0.00 in0.0 mm 0.00 in0.0 mm 0.01 in0.3 mm
07:00 PM 55.2°F12.9°C 48.6°F9.2°C 78% 0.9 mph SE1.4 kmh SE 4.0 mph6.4 kmh 29.90 in1012.5 mb 0.00 in0.0 mm 0.00 in0.0 mm 0.01 in0.3 mm
07:10 PM 55.2°F12.9°C 48.6°F9.2°C 78% 0.9 mph SE1.4 kmh SE 2.0 mph3.2 kmh 29.90 in1012.5 mb 0.00 in0.0 mm 0.00 in0.0 mm 0.01 in0.3 mm
07:20 PM 54.9°F12.7°C 48.6°F9.2°C 79% Calm Calm 2.0 mph3.2 kmh 29.90 in1012.5 mb 0.00 in0.0 mm 0.00 in0.0 mm 0.01 in0.3 mm
07:30 PM 55.0°F12.8°C 48.9°F9.4°C 80% 2.0 mph S3.2 kmh S 5.0 mph8.0 kmh 29.90 in1012.5 mb 0.00 in0.0 mm 0.00 in0.0 mm 0.01 in0.3 mm
07:40 PM 55.0°F12.8°C 48.6°F9.2°C 79% Calm Calm 2.9 mph4.7 kmh 29.91 in1012.9 mb 0.00 in0.0 mm 0.00 in0.0 mm 0.01 in0.3 mm
07:50 PM 54.1°F12.3°C 48.4°F9.1°C 81% 0.9 mph SE1.4 kmh SE 2.0 mph3.2 kmh 29.90 in1012.5 mb 0.00 in0.0 mm 0.00 in0.0 mm 0.01 in0.3 mm
08:00 PM 53.8°F12.1°C 48.4°F9.1°C 82% 0.9 mph SE1.4 kmh SE 2.0 mph3.2 kmh 29.91 in1012.9 mb 0.00 in0.0 mm 0.00 in0.0 mm 0.01 in0.3 mm
08:10 PM 54.3°F12.4°C 48.9°F9.4°C 82% Calm Calm 2.0 mph3.2 kmh 29.90 in1012.5 mb 0.00 in0.0 mm 0.00 in0.0 mm 0.01 in0.3 mm
08:20 PM 54.0°F12.2°C 48.2°F9.0°C 81% 0.9 mph SE1.4 kmh SE 2.0 mph3.2 kmh 29.91 in1012.9 mb 0.00 in0.0 mm 0.00 in0.0 mm 0.01 in0.3 mm
08:30 PM 54.1°F12.3°C 48.7°F9.3°C 82% 0.9 mph SSW1.4 kmh SSW 4.0 mph6.4 kmh 29.91 in1012.9 mb 0.00 in0.0 mm 0.00 in0.0 mm 0.01 in0.3 mm
08:40 PM 54.1°F12.3°C 49.1°F9.5°C 83% 0.9 mph S1.4 kmh S 2.9 mph4.7 kmh 29.91 in1012.9 mb 0.00 in0.0 mm 0.00 in0.0 mm 0.01 in0.3 mm
08:50 PM 54.3°F12.4°C 50.2°F10.1°C 86% 0.9 mph SW1.4 kmh SW 12.1 mph19.5 kmh 29.91 in1012.9 mb 0.00 in0.0 mm 0.00 in0.0 mm 0.01 in0.3 mm
09:00 PM 55.0°F12.8°C 51.3°F10.7°C 87% 2.0 mph S3.2 kmh S 4.9 mph7.9 kmh 29.91 in1012.9 mb 0.00 in0.0 mm 0.00 in0.0 mm 0.01 in0.3 mm
09:10 PM 55.0°F12.8°C 51.8°F11.0°C 89% 0.9 mph SW1.4 kmh SW 4.0 mph6.4 kmh 29.91 in1012.9 mb 0.01 in0.3 mm 0.06 in1.5 mm 0.02 in0.5 mm
09:20 PM 54.9°F12.7°C 51.6°F10.9°C 89% 0.9 mph S1.4 kmh S 2.9 mph4.7 kmh 29.91 in1012.9 mb 0.01 in0.3 mm 0.00 in0.0 mm 0.02 in0.5 mm
09:30 PM 54.5°F12.5°C 51.3°F10.7°C 89% Calm Calm 2.9 mph4.7 kmh 29.91 in1012.9 mb 0.01 in0.3 mm 0.00 in0.0 mm 0.02 in0.5 mm
09:40 PM 54.7°F12.6°C 51.8°F11.0°C 90% Calm Calm 2.9 mph4.7 kmh 29.90 in1012.5 mb 0.01 in0.3 mm 0.00 in0.0 mm 0.02 in0.5 mm
09:50 PM 54.7°F12.6°C 51.8°F11.0°C 90% Calm Calm 0.9 mph1.4 kmh 29.91 in1012.9 mb 0.01 in0.3 mm 0.00 in0.0 mm 0.02 in0.5 mm
10:00 PM 54.9°F12.7°C 52.0°F11.1°C 90% Calm Calm 3.0 mph4.8 kmh 29.91 in1012.9 mb 0.01 in0.3 mm 0.00 in0.0 mm 0.02 in0.5 mm
10:10 PM 55.0°F12.8°C 52.2°F11.2°C 90% Calm Calm 0.9 mph1.4 kmh 29.91 in1012.9 mb 0.01 in0.3 mm 0.00 in0.0 mm 0.03 in0.8 mm
10:20 PM 55.2°F12.9°C 52.3°F11.3°C 90% 0.9 mph SW1.4 kmh SW 4.0 mph6.4 kmh 29.91 in1012.9 mb 0.01 in0.3 mm 0.00 in0.0 mm 0.03 in0.8 mm
10:30 PM 55.2°F12.9°C 52.3°F11.3°C 90% Calm Calm 2.0 mph3.2 kmh 29.91 in1012.9 mb 0.01 in0.3 mm 0.00 in0.0 mm 0.03 in0.8 mm
10:40 PM 55.2°F12.9°C 52.3°F11.3°C 90% 0.9 mph WSW1.4 kmh WSW 6.0 mph9.7 kmh 29.91 in1012.9 mb 0.01 in0.3 mm 0.00 in0.0 mm 0.03 in0.8 mm
10:50 PM 55.8°F13.2°C 51.3°F10.7°C 85% 4.9 mph WNW7.9 kmh WNW 12.1 mph19.5 kmh 29.92 in1013.2 mb 0.01 in0.3 mm 0.00 in0.0 mm 0.03 in0.8 mm
11:00 PM 56.1°F13.4°C 50.7°F10.4°C 82% 4.9 mph W7.9 kmh W 10.1 mph16.3 kmh 29.92 in1013.2 mb 0.01 in0.3 mm 0.00 in0.0 mm 0.03 in0.8 mm
11:10 PM 56.1°F13.4°C 51.1°F10.6°C 83% 4.0 mph W6.4 kmh W 8.1 mph13.0 kmh 29.92 in1013.2 mb 0.00 in0.0 mm 0.00 in0.0 mm 0.03 in0.8 mm
11:20 PM 56.1°F13.4°C 51.1°F10.6°C 83% 2.0 mph WSW3.2 kmh WSW 6.0 mph9.7 kmh 29.92 in1013.2 mb 0.00 in0.0 mm 0.00 in0.0 mm 0.03 in0.8 mm
11:30 PM 56.3°F13.5°C 50.5°F10.3°C 81% 4.0 mph W6.4 kmh W 10.1 mph16.3 kmh 29.92 in1013.2 mb 0.00 in0.0 mm 0.00 in0.0 mm 0.03 in0.8 mm
11:40 PM 56.5°F13.6°C 50.7°F10.4°C 81% 4.0 mph NW6.4 kmh NW 8.9 mph14.3 kmh 29.92 in1013.2 mb 0.00 in0.0 mm 0.00 in0.0 mm 0.03 in0.8 mm
11:50 PM 56.8°F13.8°C 50.7°F10.4°C 80% 6.0 mph WNW9.7 kmh WNW 13.0 mph20.9 kmh 29.92 in1013.2 mb 0.00 in0.0 mm 0.00 in0.0 mm 0.03 in0.8 mm